Time;durP1;ratioP1;P1;durP2;ratioP2;P2;SDS_P1;SDS_P2;PMS_P1;PMS_P2;Temp;Humidity;BMP_temperature;BMP_pressure;BME280_temperature;BME280_humidity;BME280_pressure;Samples;Min_cycle;Max_cycle;Signal;HPM_P1;HPM_P2
2022/04/15 00:00:21;;;;;;;1.67;1.40;;;;;19.60;101254.00;;;;2079580;28;20209;-44
2022/04/15 00:01:22;;;;;;;1.30;1.20;;;;;19.60;101256.00;;;;2079732;28;20289;-45
2022/04/15 00:02:24;;;;;;;1.63;1.53;;;;;19.60;101250.00;;;;2079666;28;20213;-46
2022/04/15 00:03:30;;;;;;;1.60;1.50;;;;;19.60;101250.00;;;;2079020;28;20491;-46
2022/04/15 00:04:31;;;;;;;1.50;1.40;;;;;19.60;101260.00;;;;2079125;28;20217;-47
2022/04/15 00:05:36;;;;;;;1.57;1.47;;;;;19.60;101250.00;;;;2078374;28;20213;-45
2022/04/15 00:06:36;;;;;;;1.50;1.40;;;;;19.60;101258.00;;;;2084512;28;20216;-45
2022/04/15 00:07:37;;;;;;;1.57;1.47;;;;;19.60;101251.00;;;;2087447;28;20339;-46
2022/04/15 00:08:37;;;;;;;1.70;1.60;;;;;19.60;101253.00;;;;2087791;28;20197;-46
2022/04/15 00:09:38;;;;;;;1.60;1.50;;;;;19.60;101260.00;;;;2087272;28;20209;-45
2022/04/15 00:10:45;;;;;;;1.70;1.60;;;;;19.30;101262.00;;;;2087171;28;20205;-44
2022/04/15 00:11:46;;;;;;;1.52;1.42;;;;;19.60;101260.00;;;;2087682;28;20216;-45
2022/04/15 00:12:46;;;;;;;1.87;1.77;;;;;19.60;101250.00;;;;2087746;28;20218;-45
2022/04/15 00:13:47;;;;;;;1.70;1.60;;;;;19.60;101262.00;;;;2087203;28;20209;-45
2022/04/15 00:14:47;;;;;;;1.40;1.30;;;;;19.60;101259.00;;;;2086788;28;20209;-46
2022/04/15 00:15:48;;;;;;;1.77;1.67;;;;;19.60;101259.00;;;;2087072;28;20680;-46
2022/04/15 00:16:48;;;;;;;2.47;1.70;;;;;19.60;101263.00;;;;2087474;28;20581;-46
2022/04/15 00:17:49;;;;;;;1.63;1.53;;;;;19.60;101260.00;;;;2079395;28;20593;-44
2022/04/15 00:18:49;;;;;;;1.63;1.53;;;;;19.60;101262.00;;;;2079462;28;20649;-47
2022/04/15 00:19:50;;;;;;;1.63;1.53;;;;;19.60;101259.00;;;;2079526;28;20678;-46
2022/04/15 00:20:52;;;;;;;1.77;1.40;;;;;19.60;101259.00;;;;2083007;28;20217;-45
2022/04/15 00:21:52;;;;;;;1.60;1.50;;;;;19.60;101265.00;;;;2087672;28;20296;-45
2022/04/15 00:22:53;;;;;;;2.07;1.70;;;;;19.60;101263.00;;;;2087766;28;20270;-46
2022/04/15 00:23:56;;;;;;;1.43;1.30;;;;;19.60;101259.00;;;;2087737;28;20216;-45
2022/04/15 00:24:56;;;;;;;1.30;1.20;;;;;19.60;101259.00;;;;2087507;28;20568;-45
2022/04/15 00:25:57;;;;;;;1.73;1.63;;;;;19.60;101254.00;;;;2086065;28;21635;-50
2022/04/15 00:26:57;;;;;;;1.40;1.30;;;;;19.60;101255.00;;;;2087346;28;20277;-45
2022/04/15 00:27:58;;;;;;;1.77;1.67;;;;;19.60;101257.00;;;;2087277;28;20221;-46
2022/04/15 00:28:58;;;;;;;1.80;1.60;;;;;19.60;101245.00;;;;2087643;28;20286;-46
2022/04/15 00:29:58;;;;;;;2.20;2.00;;;;;19.60;101255.00;;;;2079686;28;20218;-45
2022/04/15 00:30:59;;;;;;;1.77;1.63;;;;;19.60;101256.00;;;;2079564;28;20239;-45
2022/04/15 00:31:59;;;;;;;1.80;1.70;;;;;19.60;101249.00;;;;2079570;28;20218;-44
2022/04/15 00:32:59;;;;;;;2.10;1.60;;;;;19.60;101251.00;;;;2079344;28;20229;-45
2022/04/15 00:34:01;;;;;;;1.60;1.50;;;;;19.60;101257.00;;;;2079371;28;20236;-44
2022/04/15 00:35:02;;;;;;;1.67;1.58;;;;;19.60;101255.00;;;;2079291;28;20274;-47
2022/04/15 00:36:02;;;;;;;1.73;1.63;;;;;19.60;101261.00;;;;2078582;28;20217;-48
2022/04/15 00:37:03;;;;;;;1.60;1.50;;;;;19.60;101261.00;;;;2079326;28;20222;-46
2022/04/15 00:38:03;;;;;;;2.13;1.93;;;;;19.60;101259.00;;;;2079316;28;20245;-45
2022/04/15 00:39:04;;;;;;;1.70;1.60;;;;;19.60;101256.00;;;;2084507;28;20725;-45
2022/04/15 00:40:06;;;;;;;1.70;1.60;;;;;19.60;101254.00;;;;2087545;28;20212;-45
2022/04/15 00:41:06;;;;;;;1.73;1.60;;;;;19.50;101254.00;;;;2087561;28;20588;-46
2022/04/15 00:42:08;;;;;;;1.67;1.57;;;;;19.60;101261.00;;;;2086461;28;20221;-47
2022/04/15 00:43:08;;;;;;;1.50;1.40;;;;;19.60;101268.00;;;;2087596;28;20228;-47
2022/04/15 00:44:09;;;;;;;1.60;1.50;;;;;19.60;101266.00;;;;2087546;28;20213;-46
2022/04/15 00:45:09;;;;;;;1.67;1.57;;;;;19.60;101264.00;;;;2087537;28;20201;-45
2022/04/15 00:46:10;;;;;;;1.50;1.40;;;;;19.60;101262.00;;;;2086829;28;20205;-45
2022/04/15 00:47:40;;;;;;;1.77;1.67;;;;;19.60;101268.00;;;;2087172;28;20329;-45
2022/04/15 00:48:40;;;;;;;1.77;1.65;;;;;19.60;101258.00;;;;2086583;28;20209;-45
2022/04/15 00:49:41;;;;;;;1.67;1.57;;;;;19.60;101267.00;;;;2086456;28;20209;-47
2022/04/15 00:50:41;;;;;;;1.53;1.43;;;;;19.60;101265.00;;;;2087444;28;20251;-47
2022/04/15 00:51:42;;;;;;;1.70;1.60;;;;;19.60;101263.00;;;;2086819;28;20244;-45
2022/04/15 00:52:46;;;;;;;1.77;1.67;;;;;19.60;101263.00;;;;2087018;28;20216;-45
2022/04/15 00:53:46;;;;;;;1.40;1.30;;;;;19.60;101264.00;;;;2086718;28;20220;-44
2022/04/15 00:54:48;;;;;;;1.47;1.37;;;;;19.60;101252.00;;;;2087232;28;20209;-46
2022/04/15 00:55:48;;;;;;;1.60;1.50;;;;;19.60;101263.00;;;;2085154;28;20224;-45
2022/04/15 00:56:49;;;;;;;1.57;1.47;;;;;19.60;101260.00;;;;2069584;28;20712;-48
2022/04/15 00:57:57;;;;;;;1.60;1.50;;;;;19.60;101268.00;;;;2069895;28;20226;-46
2022/04/15 00:58:58;;;;;;;1.70;1.60;;;;;19.60;101258.00;;;;2086637;28;20233;-45
2022/04/15 00:59:58;;;;;;;1.70;1.60;;;;;19.60;101263.00;;;;2078463;28;20771;-45
2022/04/15 01:00:59;;;;;;;1.77;1.60;;;;;19.60;101248.00;;;;2078491;28;20463;-45
2022/04/15 01:01:59;;;;;;;1.70;1.60;;;;;19.60;101264.00;;;;2086898;28;20802;-46
2022/04/15 01:03:03;;;;;;;1.60;1.50;;;;;19.60;101267.00;;;;2070635;28;20218;-46
2022/04/15 01:04:04;;;;;;;1.88;1.60;;;;;19.60;101258.00;;;;2086521;28;20263;-45
2022/04/15 01:05:06;;;;;;;1.53;1.43;;;;;19.60;101263.00;;;;2086311;28;20217;-47
2022/04/15 01:06:07;;;;;;;1.60;1.33;;;;;19.60;101261.00;;;;2086063;28;20213;-45
2022/04/15 01:07:07;;;;;;;1.67;1.57;;;;;19.50;101262.00;;;;2086796;28;20291;-45
2022/04/15 01:08:08;;;;;;;2.50;2.10;;;;;19.60;101265.00;;;;2087203;28;20219;-45
2022/04/15 01:09:09;;;;;;;1.97;1.67;;;;;19.60;101259.00;;;;2086144;28;20217;-45
2022/04/15 01:10:10;;;;;;;1.60;1.50;;;;;19.60;101274.00;;;;2078005;28;20452;-45
2022/04/15 01:11:11;;;;;;;2.13;1.73;;;;;19.50;101243.00;;;;2077688;28;20224;-45
2022/04/15 01:12:11;;;;;;;1.90;1.80;;;;;19.50;101271.00;;;;2086041;28;20231;-46
2022/04/15 01:13:11;;;;;;;1.70;1.60;;;;;19.50;101255.00;;;;2085813;28;20225;-46
2022/04/15 01:14:12;;;;;;;1.93;1.73;;;;;19.60;101265.00;;;;2085958;28;20700;-47
2022/04/15 01:15:13;;;;;;;1.80;1.70;;;;;19.60;101269.00;;;;2077916;28;20217;-47
2022/04/15 01:16:13;;;;;;;1.77;1.53;;;;;19.60;101275.00;;;;2085563;28;20221;-47
2022/04/15 01:17:13;;;;;;;1.93;1.80;;;;;19.50;101268.00;;;;2072806;28;20489;-45
2022/04/15 01:18:14;;;;;;;1.93;1.73;;;;;19.50;101281.00;;;;2075578;28;20300;-46
2022/04/15 01:19:14;;;;;;;1.93;1.63;;;;;19.50;101279.00;;;;2084356;28;20217;-47
2022/04/15 01:20:14;;;;;;;1.90;1.80;;;;;19.50;101282.00;;;;2081723;28;20222;-46
2022/04/15 01:21:15;;;;;;;2.20;2.00;;;;;19.50;101280.00;;;;2078950;28;20213;-48
2022/04/15 01:22:15;;;;;;;1.70;1.60;;;;;19.50;101279.00;;;;2078343;28;20206;-46
2022/04/15 01:23:15;;;;;;;1.80;1.70;;;;;19.50;101274.00;;;;2078379;28;20214;-46
2022/04/15 01:24:16;;;;;;;1.70;1.60;;;;;19.50;101279.00;;;;2078671;28;20218;-45
2022/04/15 01:25:17;;;;;;;2.50;1.70;;;;;19.50;101280.00;;;;2078562;28;20213;-46
2022/04/15 01:26:17;;;;;;;1.70;1.60;;;;;19.60;101288.00;;;;2078278;28;20213;-46
2022/04/15 01:27:27;;;;;;;2.00;1.80;;;;;19.50;101284.00;;;;2078800;28;21023;-45
2022/04/15 01:28:28;;;;;;;1.50;1.40;;;;;19.50;101285.00;;;;2078465;28;20258;-45
2022/04/15 01:29:28;;;;;;;1.70;1.60;;;;;19.50;101280.00;;;;2078889;28;20225;-45
2022/04/15 01:30:28;;;;;;;2.10;1.83;;;;;19.50;101290.00;;;;2070007;28;20264;-45
2022/04/15 01:31:31;;;;;;;1.93;1.73;;;;;19.50;101286.00;;;;2070186;28;20222;-45
2022/04/15 01:32:32;;;;;;;1.90;1.75;;;;;19.50;101286.00;;;;2079057;28;20304;-45
2022/04/15 01:33:32;;;;;;;1.60;1.50;;;;;19.50;101287.00;;;;2082344;28;20274;-45
2022/04/15 01:34:32;;;;;;;2.90;1.77;;;;;19.50;101286.00;;;;2083249;28;20221;-45
2022/04/15 01:35:35;;;;;;;1.40;1.30;;;;;19.50;101281.00;;;;2074882;28;20214;-46
2022/04/15 01:36:36;;;;;;;1.80;1.70;;;;;19.50;101284.00;;;;2070834;28;20218;-46
2022/04/15 01:37:36;;;;;;;1.57;1.47;;;;;19.50;101274.00;;;;2070691;28;20225;-45
2022/04/15 01:38:37;;;;;;;1.57;1.47;;;;;19.50;101263.00;;;;2069758;28;20222;-45
2022/04/15 01:39:37;;;;;;;1.60;1.50;;;;;19.50;101279.00;;;;2052686;28;21669;-49
2022/04/15 01:40:38;;;;;;;1.50;1.40;;;;;19.50;101281.00;;;;2049979;28;20223;-46
2022/04/15 01:41:39;;;;;;;2.28;1.77;;;;;19.50;101281.00;;;;2075490;28;20210;-45
2022/04/15 01:42:40;;;;;;;1.73;1.63;;;;;19.50;101287.00;;;;2078643;28;20210;-45
2022/04/15 01:43:41;;;;;;;1.40;1.30;;;;;19.50;101293.00;;;;2069859;28;20814;-45
2022/04/15 01:44:41;;;;;;;1.67;1.57;;;;;19.60;101287.00;;;;2070734;28;20232;-45
2022/04/15 01:45:42;;;;;;;1.70;1.60;;;;;19.50;101289.00;;;;2069766;28;20222;-45
2022/04/15 01:46:42;;;;;;;1.70;1.60;;;;;19.50;101284.00;;;;2071018;28;20288;-47
2022/04/15 01:47:43;;;;;;;1.63;1.30;;;;;19.50;101294.00;;;;2070429;28;20227;-46
2022/04/15 01:48:44;;;;;;;1.85;1.50;;;;;19.50;101288.00;;;;2070414;28;20230;-46
2022/04/15 01:49:44;;;;;;;1.80;1.70;;;;;19.50;101301.00;;;;2070700;28;20221;-48
2022/04/15 01:50:46;;;;;;;1.80;1.70;;;;;19.50;101297.00;;;;2070834;28;20237;-46
2022/04/15 01:51:46;;;;;;;1.67;1.58;;;;;19.50;101300.00;;;;2077881;28;20210;-46
2022/04/15 01:52:47;;;;;;;1.63;1.53;;;;;19.50;101300.00;;;;2078782;28;20635;-46
2022/04/15 01:53:47;;;;;;;1.60;1.47;;;;;19.50;101308.00;;;;2078794;28;20311;-45
2022/04/15 01:54:47;;;;;;;1.93;1.83;;;;;19.50;101299.00;;;;2078453;28;20197;-45
2022/04/15 01:55:48;;;;;;;1.80;1.70;;;;;19.50;101305.00;;;;2078287;28;20208;-45
2022/04/15 01:56:48;;;;;;;1.60;1.50;;;;;19.50;101297.00;;;;2078886;28;20210;-45
2022/04/15 01:57:49;;;;;;;2.27;2.00;;;;;19.50;101298.00;;;;2078922;28;20209;-47
2022/04/15 01:58:49;;;;;;;2.13;2.00;;;;;19.50;101302.00;;;;2078624;28;20567;-45
2022/04/15 01:59:49;;;;;;;1.63;1.53;;;;;19.50;101299.00;;;;2079071;28;20590;-46
2022/04/15 02:00:50;;;;;;;2.10;1.70;;;;;19.50;101301.00;;;;2078343;28;20586;-45
2022/04/15 02:01:54;;;;;;;1.73;1.47;;;;;19.50;101302.00;;;;2078346;28;20267;-45
2022/04/15 02:02:55;;;;;;;1.80;1.70;;;;;19.50;101296.00;;;;2080241;28;21167;-48
2022/04/15 02:03:55;;;;;;;2.00;1.67;;;;;19.50;101303.00;;;;2083503;28;20209;-46
2022/04/15 02:04:55;;;;;;;1.93;1.80;;;;;19.50;101299.00;;;;2078687;28;20275;-45
2022/04/15 02:05:56;;;;;;;1.73;1.63;;;;;19.50;101298.00;;;;2076942;28;20248;-45
2022/04/15 02:06:56;;;;;;;2.63;1.70;;;;;19.50;101298.00;;;;2080108;28;20838;-45
2022/04/15 02:07:57;;;;;;;1.70;1.60;;;;;19.50;101304.00;;;;2084727;28;20209;-45
2022/04/15 02:08:57;;;;;;;2.00;1.80;;;;;19.30;101300.00;;;;2078589;28;20202;-45
2022/04/15 02:09:57;;;;;;;1.80;1.70;;;;;19.50;101304.00;;;;2078645;28;20288;-46
2022/04/15 02:10:58;;;;;;;1.60;1.37;;;;;19.50;101302.00;;;;2078768;28;20217;-45
2022/04/15 02:11:58;;;;;;;1.97;1.67;;;;;19.50;101308.00;;;;2078894;28;20214;-45
2022/04/15 02:12:58;;;;;;;1.57;1.47;;;;;19.50;101305.00;;;;2078889;28;20259;-46
2022/04/15 02:13:59;;;;;;;2.30;1.80;;;;;19.50;101308.00;;;;2078820;28;20213;-45
2022/04/15 02:14:59;;;;;;;1.60;1.50;;;;;19.50;101312.00;;;;2078470;28;20221;-45
2022/04/15 02:15:59;;;;;;;1.70;1.60;;;;;19.50;101302.00;;;;2078086;28;20217;-45
2022/04/15 02:17:00;;;;;;;1.50;1.40;;;;;19.50;101306.00;;;;2078255;28;20271;-47
2022/04/15 02:18:00;;;;;;;1.90;1.80;;;;;19.50;101308.00;;;;2078572;28;20210;-46
2022/04/15 02:19:00;;;;;;;1.70;1.60;;;;;19.50;101308.00;;;;2078747;28;20237;-46
2022/04/15 02:20:01;;;;;;;1.77;1.50;;;;;19.50;101306.00;;;;2076312;28;20224;-46
2022/04/15 02:21:01;;;;;;;1.47;1.37;;;;;19.50;101306.00;;;;2070673;28;20214;-45
2022/04/15 02:22:02;;;;;;;2.27;2.07;;;;;19.50;101304.00;;;;2070394;28;20226;-45
2022/04/15 02:23:02;;;;;;;1.77;1.67;;;;;19.50;101307.00;;;;2070686;28;20301;-46
2022/04/15 02:24:03;;;;;;;1.63;1.53;;;;;19.50;101308.00;;;;2070371;28;20241;-46
2022/04/15 02:25:04;;;;;;;1.43;1.33;;;;;19.50;101321.00;;;;2070387;28;20210;-45
2022/04/15 02:26:04;;;;;;;2.45;1.60;;;;;19.50;101316.00;;;;2069819;28;20222;-46
2022/04/15 02:27:05;;;;;;;1.60;1.50;;;;;19.50;101315.00;;;;2070765;28;20210;-46
2022/04/15 02:28:05;;;;;;;1.70;1.60;;;;;19.50;101309.00;;;;2070615;28;20220;-46
2022/04/15 02:29:05;;;;;;;1.83;1.73;;;;;19.50;101315.00;;;;2070117;28;20328;-45
2022/04/15 02:30:06;;;;;;;1.50;1.40;;;;;19.50;101322.00;;;;2070265;28;20210;-45
2022/04/15 02:31:07;;;;;;;1.47;1.37;;;;;19.50;101314.00;;;;2070695;28;20268;-46
2022/04/15 02:32:07;;;;;;;1.60;1.50;;;;;19.50;101318.00;;;;2070606;28;20305;-45
2022/04/15 02:33:08;;;;;;;1.47;1.37;;;;;19.50;101315.00;;;;2077124;28;20690;-45
2022/04/15 02:34:08;;;;;;;2.13;1.63;;;;;19.50;101312.00;;;;2078824;28;20296;-45
2022/04/15 02:35:09;;;;;;;1.53;1.43;;;;;19.50;101318.00;;;;2078612;28;20302;-45
2022/04/15 02:36:10;;;;;;;1.83;1.33;;;;;19.50;101314.00;;;;2077924;28;20340;-45
2022/04/15 02:37:10;;;;;;;1.97;1.57;;;;;19.50;101314.00;;;;2078526;28;20336;-45
2022/04/15 02:38:10;;;;;;;1.70;1.60;;;;;19.50;101312.00;;;;2078429;28;20213;-45
2022/04/15 02:39:11;;;;;;;1.70;1.60;;;;;19.50;101313.00;;;;2078461;28;20217;-44
2022/04/15 02:40:11;;;;;;;2.00;1.80;;;;;19.50;101318.00;;;;2078865;28;20244;-47
2022/04/15 02:41:12;;;;;;;1.87;1.77;;;;;19.50;101309.00;;;;2082303;28;20208;-45
2022/04/15 02:42:12;;;;;;;1.60;1.50;;;;;19.50;101319.00;;;;2074348;28;20221;-47
2022/04/15 02:43:12;;;;;;;2.03;1.90;;;;;19.50;101314.00;;;;2057284;28;21032;-47
2022/04/15 02:44:13;;;;;;;1.43;1.33;;;;;19.50;101315.00;;;;2077007;28;20214;-46
2022/04/15 02:45:13;;;;;;;1.63;1.53;;;;;19.50;101313.00;;;;2077281;28;20217;-47
2022/04/15 02:46:13;;;;;;;1.50;1.40;;;;;19.50;101306.00;;;;2077277;28;20214;-46
2022/04/15 02:47:14;;;;;;;1.40;1.30;;;;;19.50;101318.00;;;;2078283;28;20271;-46
2022/04/15 02:48:14;;;;;;;1.83;1.47;;;;;19.50;101263.00;;;;2078303;28;20252;-46
2022/04/15 02:49:14;;;;;;;1.50;1.40;;;;;19.50;101312.00;;;;2078274;28;20221;-48
2022/04/15 02:50:15;;;;;;;2.30;2.10;;;;;19.50;101308.00;;;;2078737;28;20217;-46
2022/04/15 02:51:16;;;;;;;1.50;1.40;;;;;19.50;101320.00;;;;2078334;28;20258;-45
2022/04/15 02:52:17;;;;;;;1.63;1.52;;;;;19.50;101314.00;;;;2076466;28;20297;-45
2022/04/15 02:53:17;;;;;;;1.63;1.50;;;;;19.50;101314.00;;;;2067865;28;20796;-45
2022/04/15 02:54:17;;;;;;;1.40;1.30;;;;;19.50;101321.00;;;;2069752;28;20801;-48
2022/04/15 02:55:18;;;;;;;1.70;1.60;;;;;19.50;101317.00;;;;2076899;28;20690;-46
2022/04/15 02:56:18;;;;;;;1.43;1.33;;;;;19.50;101317.00;;;;2078132;28;20669;-45
2022/04/15 02:57:18;;;;;;;1.80;1.70;;;;;19.50;101314.00;;;;2086371;28;20524;-46
2022/04/15 02:58:19;;;;;;;1.80;1.70;;;;;19.50;101318.00;;;;2085728;28;20809;-50
2022/04/15 02:59:20;;;;;;;1.70;1.60;;;;;19.50;101313.00;;;;2085944;28;20224;-46
2022/04/15 03:00:21;;;;;;;1.47;1.37;;;;;19.50;101306.00;;;;2085918;28;20447;-45
2022/04/15 03:01:21;;;;;;;1.30;1.20;;;;;19.50;101317.00;;;;2086782;28;20475;-45
2022/04/15 03:02:21;;;;;;;1.93;1.73;;;;;19.50;101322.00;;;;2086704;28;20217;-45
2022/04/15 03:03:22;;;;;;;1.87;1.70;;;;;19.50;101312.00;;;;2085983;28;20580;-46
2022/04/15 03:04:23;;;;;;;2.03;1.90;;;;;19.50;101316.00;;;;2086219;28;20299;-45
2022/04/15 03:05:23;;;;;;;1.48;1.38;;;;;19.50;101318.00;;;;2086053;28;20217;-46
2022/04/15 03:06:24;;;;;;;1.37;1.27;;;;;19.50;101315.00;;;;2085793;28;20744;-46
2022/04/15 03:07:24;;;;;;;1.80;1.70;;;;;19.50;101315.00;;;;2085820;28;20213;-47
2022/04/15 03:08:24;;;;;;;1.60;1.47;;;;;19.50;101324.00;;;;2086780;28;20259;-47
2022/04/15 03:09:25;;;;;;;1.67;1.37;;;;;19.50;101321.00;;;;2085788;28;20210;-45
2022/04/15 03:10:25;;;;;;;1.50;1.40;;;;;19.50;101316.00;;;;2086786;28;20575;-45
2022/04/15 03:11:25;;;;;;;1.90;1.77;;;;;19.50;101321.00;;;;2086653;28;20208;-47
2022/04/15 03:12:26;;;;;;;1.60;1.40;;;;;19.50;101327.00;;;;2085293;28;20216;-46
2022/04/15 03:13:27;;;;;;;1.83;1.67;;;;;19.50;101310.00;;;;2088013;28;20227;-46
2022/04/15 03:14:27;;;;;;;1.80;1.70;;;;;19.50;101322.00;;;;2086613;28;20269;-45
2022/04/15 03:15:28;;;;;;;1.63;1.53;;;;;19.50;101319.00;;;;2086387;28;20204;-45
2022/04/15 03:16:28;;;;;;;1.60;1.27;;;;;19.30;101322.00;;;;2088026;28;20204;-45
2022/04/15 03:17:29;;;;;;;2.33;1.80;;;;;19.30;101319.00;;;;2088225;28;20216;-46
2022/04/15 03:18:29;;;;;;;1.50;1.40;;;;;19.50;101319.00;;;;2085586;28;20287;-47
2022/04/15 03:19:29;;;;;;;1.93;1.83;;;;;19.50;101321.00;;;;2079133;28;20225;-46
2022/04/15 03:20:29;;;;;;;1.73;1.57;;;;;19.50;101320.00;;;;2079995;28;20263;-46
2022/04/15 03:21:30;;;;;;;1.60;1.40;;;;;19.50;101318.00;;;;2078559;28;20214;-46
2022/04/15 03:22:34;;;;;;;1.60;1.50;;;;;19.50;101320.00;;;;2080012;28;20217;-45
2022/04/15 03:23:35;;;;;;;1.98;1.77;;;;;19.50;101321.00;;;;2078989;28;20297;-46
2022/04/15 03:24:35;;;;;;;1.60;1.50;;;;;19.50;101314.00;;;;2070454;28;20265;-45
2022/04/15 03:25:35;;;;;;;1.77;1.67;;;;;19.50;101316.00;;;;2078223;28;20217;-47
2022/04/15 03:26:36;;;;;;;1.70;1.60;;;;;19.50;101319.00;;;;2081701;28;20267;-46
2022/04/15 03:27:36;;;;;;;1.97;1.87;;;;;19.50;101326.00;;;;2088110;28;20200;-45
2022/04/15 03:28:37;;;;;;;1.47;1.37;;;;;19.50;101318.00;;;;2087789;28;20574;-46
2022/04/15 03:29:38;;;;;;;1.70;1.60;;;;;19.40;101315.00;;;;2079783;28;20232;-46
2022/04/15 03:30:38;;;;;;;2.03;1.83;;;;;19.40;101322.00;;;;2080112;28;20644;-45
2022/04/15 03:31:38;;;;;;;1.60;1.50;;;;;19.50;101321.00;;;;2080007;28;20225;-45
2022/04/15 03:32:48;;;;;;;2.00;1.90;;;;;19.50;101319.00;;;;2079992;28;20209;-45
2022/04/15 03:33:49;;;;;;;1.60;1.50;;;;;19.50;101322.00;;;;2085786;28;20251;-45
2022/04/15 03:34:57;;;;;;;1.40;1.30;;;;;19.50;101318.00;;;;2088032;28;20268;-45
2022/04/15 03:35:57;;;;;;;1.70;1.60;;;;;19.50;101315.00;;;;2086798;28;20701;-46
2022/04/15 03:36:58;;;;;;;2.13;1.70;;;;;19.50;101324.00;;;;2088032;28;20217;-45
2022/04/15 03:37:58;;;;;;;1.40;1.30;;;;;19.50;101318.00;;;;2088249;28;20229;-46
2022/04/15 03:38:58;;;;;;;1.53;1.43;;;;;19.50;101315.00;;;;2087089;28;20316;-46
2022/04/15 03:39:59;;;;;;;1.70;1.53;;;;;19.50;101315.00;;;;2087412;28;20265;-46
2022/04/15 03:40:59;;;;;;;1.77;1.50;;;;;19.50;101310.00;;;;2088342;28;20212;-45
2022/04/15 03:42:01;;;;;;;1.90;1.60;;;;;19.50;101310.00;;;;2088342;28;20443;-45
2022/04/15 03:43:01;;;;;;;1.38;1.27;;;;;19.50;101316.00;;;;2087483;28;20304;-46
2022/04/15 03:44:01;;;;;;;1.77;1.50;;;;;19.50;101315.00;;;;2087112;28;20220;-45
2022/04/15 03:45:02;;;;;;;1.50;1.40;;;;;19.50;101314.00;;;;2087996;28;20547;-45
2022/04/15 03:46:02;;;;;;;1.93;1.83;;;;;19.50;101316.00;;;;2087242;28;20235;-47
2022/04/15 03:47:04;;;;;;;1.80;1.67;;;;;19.50;101317.00;;;;2084350;28;21218;-45
2022/04/15 03:48:04;;;;;;;1.70;1.60;;;;;19.50;101314.00;;;;2084542;28;20307;-45
2022/04/15 03:49:05;;;;;;;2.00;1.80;;;;;19.40;101319.00;;;;2087602;28;20229;-46
2022/04/15 03:50:06;;;;;;;1.60;1.50;;;;;19.50;101328.00;;;;2087988;28;20214;-44
2022/04/15 03:51:08;;;;;;;1.87;1.73;;;;;19.50;101310.00;;;;2088142;28;20246;-45
2022/04/15 03:52:09;;;;;;;1.50;1.40;;;;;19.50;101325.00;;;;2088160;28;20216;-48
2022/04/15 03:53:09;;;;;;;2.10;1.70;;;;;19.50;101320.00;;;;2088101;28;20689;-46
2022/04/15 03:54:09;;;;;;;1.60;1.50;;;;;19.50;101329.00;;;;2088133;28;20217;-45
2022/04/15 03:55:10;;;;;;;1.83;1.60;;;;;19.50;101330.00;;;;2087860;28;20681;-45
2022/04/15 03:56:11;;;;;;;1.50;1.40;;;;;19.40;101338.00;;;;2086649;28;20895;-45
2022/04/15 03:57:11;;;;;;;1.90;1.67;;;;;19.40;101326.00;;;;2087356;28;20216;-47
2022/04/15 03:58:13;;;;;;;1.57;1.47;;;;;19.40;101330.00;;;;2087363;28;20213;-45
2022/04/15 03:59:14;;;;;;;1.90;1.70;;;;;19.50;101329.00;;;;2086767;28;20244;-46
2022/04/15 04:00:16;;;;;;;1.70;1.60;;;;;19.40;101329.00;;;;2087161;28;20312;-45
2022/04/15 04:01:16;;;;;;;1.52;1.42;;;;;19.50;101340.00;;;;2086812;28;20221;-45
2022/04/15 04:02:16;;;;;;;1.80;1.70;;;;;19.40;101332.00;;;;2087265;28;20240;-45
2022/04/15 04:03:17;;;;;;;1.80;1.70;;;;;19.50;101337.00;;;;2086545;28;20220;-44
2022/04/15 04:04:17;;;;;;;1.43;1.33;;;;;19.40;101332.00;;;;2083240;28;20213;-45
2022/04/15 04:05:18;;;;;;;1.83;1.70;;;;;19.50;101330.00;;;;2079447;28;21744;-48
2022/04/15 04:06:18;;;;;;;1.63;1.53;;;;;19.40;101340.00;;;;2079291;28;20216;-45
2022/04/15 04:07:18;;;;;;;1.97;1.87;;;;;19.40;101335.00;;;;2079590;28;20221;-44
2022/04/15 04:08:19;;;;;;;2.50;1.73;;;;;19.40;101342.00;;;;2079323;28;20248;-45
2022/04/15 04:09:19;;;;;;;2.20;2.00;;;;;19.40;101332.00;;;;2077654;28;20221;-46
2022/04/15 04:10:19;;;;;;;1.63;1.53;;;;;19.40;101330.00;;;;2078973;28;20260;-44
2022/04/15 04:11:21;;;;;;;1.73;1.60;;;;;19.40;101338.00;;;;2079554;28;20293;-48
2022/04/15 04:12:21;;;;;;;1.75;1.65;;;;;19.40;101332.00;;;;2079704;28;20217;-45
2022/04/15 04:13:22;;;;;;;1.80;1.70;;;;;19.40;101343.00;;;;2079500;28;20671;-46
2022/04/15 04:14:23;;;;;;;2.22;1.80;;;;;19.40;101340.00;;;;2079473;28;20261;-46
2022/04/15 04:15:23;;;;;;;1.77;1.67;;;;;19.40;101340.00;;;;2078919;28;20889;-45
2022/04/15 04:16:23;;;;;;;1.70;1.60;;;;;19.40;101341.00;;;;2079423;28;20224;-46
2022/04/15 04:17:24;;;;;;;2.30;1.60;;;;;19.40;101335.00;;;;2079596;28;20275;-46
2022/04/15 04:18:24;;;;;;;1.40;1.30;;;;;19.40;101336.00;;;;2079573;28;20712;-48
2022/04/15 04:19:24;;;;;;;1.77;1.67;;;;;19.40;101338.00;;;;2079338;28;20766;-46
2022/04/15 04:20:25;;;;;;;1.60;1.50;;;;;19.50;101344.00;;;;2079383;28;20214;-45
2022/04/15 04:21:25;;;;;;;2.17;1.67;;;;;19.20;101346.00;;;;2079705;28;20221;-47
2022/04/15 04:22:34;;;;;;;1.60;1.40;;;;;19.50;101344.00;;;;2079654;28;20209;-47
2022/04/15 04:23:34;;;;;;;1.70;1.60;;;;;19.40;101357.00;;;;2079668;28;20629;-46
2022/04/15 04:24:35;;;;;;;2.00;1.80;;;;;19.40;101352.00;;;;2087337;28;20213;-46
2022/04/15 04:25:35;;;;;;;1.80;1.70;;;;;19.40;101346.00;;;;2086456;28;20247;-46
2022/04/15 04:26:35;;;;;;;1.43;1.33;;;;;19.40;101350.00;;;;2087144;28;20584;-47
2022/04/15 04:27:37;;;;;;;1.70;1.60;;;;;19.40;101349.00;;;;2087486;28;20209;-46
2022/04/15 04:28:37;;;;;;;1.63;1.52;;;;;19.40;101356.00;;;;2087545;28;20652;-46
2022/04/15 04:29:37;;;;;;;1.70;1.60;;;;;19.40;101352.00;;;;2085650;28;20205;-48
2022/04/15 04:30:38;;;;;;;1.83;1.67;;;;;19.40;101359.00;;;;2079681;28;20263;-47
2022/04/15 04:31:39;;;;;;;1.57;1.47;;;;;19.40;101357.00;;;;2079662;28;20240;-47
2022/04/15 04:32:39;;;;;;;1.57;1.47;;;;;19.40;101357.00;;;;2079577;28;20543;-46
2022/04/15 04:33:39;;;;;;;2.03;1.70;;;;;19.40;101347.00;;;;2079618;28;20210;-46
2022/04/15 04:34:40;;;;;;;1.70;1.60;;;;;19.40;101356.00;;;;2079493;28;20768;-47
2022/04/15 04:35:40;;;;;;;1.70;1.60;;;;;19.40;101358.00;;;;2078964;28;20674;-47
2022/04/15 04:36:40;;;;;;;1.73;1.40;;;;;19.40;101364.00;;;;2078936;28;20230;-47
2022/04/15 04:37:41;;;;;;;1.77;1.67;;;;;19.40;101355.00;;;;2078829;28;20256;-47
2022/04/15 04:38:41;;;;;;;2.00;1.60;;;;;19.40;101355.00;;;;2079396;28;20466;-46
2022/04/15 04:39:41;;;;;;;1.60;1.43;;;;;19.50;101358.00;;;;2079490;28;20217;-46
2022/04/15 04:40:42;;;;;;;1.90;1.67;;;;;19.40;101362.00;;;;2079470;28;20220;-46
2022/04/15 04:41:42;;;;;;;1.87;1.60;;;;;19.40;101357.00;;;;2079499;28;20217;-46
2022/04/15 04:42:42;;;;;;;2.00;1.80;;;;;19.40;101362.00;;;;2079652;28;20217;-46
2022/04/15 04:43:43;;;;;;;1.63;1.53;;;;;19.40;101364.00;;;;2078180;28;20209;-46
2022/04/15 04:44:43;;;;;;;1.80;1.60;;;;;19.40;101366.00;;;;2079388;28;20829;-47
2022/04/15 04:45:43;;;;;;;1.50;1.40;;;;;19.40;101367.00;;;;2078940;28;20217;-46
2022/04/15 04:46:44;;;;;;;2.33;2.13;;;;;19.40;101362.00;;;;2078868;28;20360;-47
2022/04/15 04:47:45;;;;;;;1.50;1.40;;;;;19.40;101350.00;;;;2070098;28;20715;-46
2022/04/15 04:48:45;;;;;;;1.50;1.40;;;;;19.40;101366.00;;;;2070226;28;20891;-46
2022/04/15 04:49:46;;;;;;;1.50;1.40;;;;;19.40;101370.00;;;;2064918;28;20459;-47
2022/04/15 04:50:46;;;;;;;2.00;1.83;;;;;19.40;101367.00;;;;2070838;28;20222;-46
2022/04/15 04:51:47;;;;;;;2.00;1.90;;;;;19.40;101362.00;;;;2070778;28;20217;-47
2022/04/15 04:52:47;;;;;;;1.90;1.80;;;;;19.40;101372.00;;;;2070515;28;20218;-46
2022/04/15 04:53:48;;;;;;;1.73;1.63;;;;;19.40;101369.00;;;;2076044;28;20733;-47
2022/04/15 04:54:48;;;;;;;1.97;1.87;;;;;19.40;101367.00;;;;2079322;28;20332;-46
2022/04/15 04:55:48;;;;;;;1.70;1.60;;;;;19.40;101368.00;;;;2078514;28;20217;-46
2022/04/15 04:56:49;;;;;;;2.23;1.63;;;;;19.40;101371.00;;;;2079353;28;20210;-45
2022/04/15 04:57:49;;;;;;;2.20;2.00;;;;;19.40;101376.00;;;;2078467;28;20249;-46
2022/04/15 04:58:50;;;;;;;1.77;1.67;;;;;19.40;101378.00;;;;2078737;28;20597;-47
2022/04/15 04:59:50;;;;;;;1.90;1.70;;;;;19.40;101380.00;;;;2073321;28;20280;-47
2022/04/15 05:00:50;;;;;;;1.60;1.33;;;;;19.40;101380.00;;;;2071226;28;20217;-47